createdAt,value
2019-02-12T00:01:04.851Z,23.92
2019-02-12T00:03:34.160Z,24.55
2019-02-12T00:06:03.721Z,22.90
2019-02-12T00:08:33.262Z,23.60
2019-02-12T00:11:02.831Z,26.40
2019-02-12T00:13:32.349Z,30.12
2019-02-12T00:16:01.958Z,33.20
2019-02-12T00:18:31.429Z,35.95
2019-02-12T00:21:08.744Z,34.10
2019-02-12T00:23:32.127Z,33.75
2019-02-12T00:26:01.632Z,33.63
2019-02-12T00:28:31.331Z,33.55
2019-02-12T00:31:00.851Z,36.28
2019-02-12T00:33:30.312Z,32.58
2019-02-12T00:36:00.074Z,34.08
2019-02-12T00:38:29.596Z,24.77
2019-02-12T00:40:59.120Z,23.85
2019-02-12T00:43:28.649Z,23.65
2019-02-12T00:45:58.209Z,23.00
2019-02-12T00:48:27.675Z,22.82
2019-02-12T00:50:57.236Z,26.07
2019-02-12T00:53:26.744Z,24.23
2019-02-12T00:55:56.250Z,23.95
2019-02-12T00:58:25.997Z,22.90
2019-02-12T01:00:55.530Z,20.17
2019-02-12T01:03:25.133Z,22.05
2019-02-12T01:05:54.743Z,21.87
2019-02-12T01:08:24.237Z,20.45
2019-02-12T01:10:53.854Z,23.00
2019-02-12T01:13:23.385Z,25.55
2019-02-12T01:15:52.843Z,22.82
2019-02-12T01:18:22.380Z,22.48
2019-02-12T01:20:51.935Z,18.37
2019-02-12T01:23:21.424Z,17.85
2019-02-12T01:25:50.901Z,18.55
2019-02-12T01:28:20.643Z,16.95
2019-02-12T01:30:50.215Z,18.05
2019-02-12T01:33:19.656Z,19.50
2019-02-12T01:35:49.344Z,19.05
2019-02-12T01:38:18.837Z,17.62
2019-02-12T01:40:48.281Z,17.37
2019-02-12T01:43:17.805Z,16.67
2019-02-12T01:45:47.377Z,15.85
2019-02-12T01:48:17.063Z,15.13
2019-02-12T01:50:46.649Z,14.73
2019-02-12T01:53:16.147Z,16.17
2019-02-12T01:55:45.683Z,17.25
2019-02-12T01:58:15.258Z,16.05
2019-02-12T02:00:44.830Z,16.20
2019-02-12T02:03:14.396Z,14.20
2019-02-12T02:05:44.020Z,12.37
2019-02-12T02:08:13.617Z,14.47
2019-02-12T02:10:43.113Z,17.17
2019-02-12T02:13:12.815Z,23.10
2019-02-12T02:15:42.282Z,19.30
2019-02-12T02:18:11.838Z,17.80
2019-02-12T02:20:41.527Z,17.12
2019-02-12T02:23:11.009Z,14.50
2019-02-12T02:25:40.651Z,15.45
2019-02-12T02:28:10.363Z,17.85
2019-02-12T02:30:39.866Z,19.67
2019-02-12T02:33:09.545Z,19.90
2019-02-12T02:35:39.125Z,19.23
2019-02-12T02:38:08.693Z,20.90
2019-02-12T02:40:38.211Z,19.12
2019-02-12T02:43:07.744Z,20.40
2019-02-12T02:45:37.293Z,19.00
2019-02-12T02:48:06.759Z,19.55
2019-02-12T02:50:36.307Z,18.67
2019-02-12T02:53:05.882Z,20.15
2019-02-12T02:55:35.400Z,20.60
2019-02-12T02:58:05.083Z,23.47
2019-02-12T03:00:34.553Z,24.30
2019-02-12T03:03:03.981Z,26.23
2019-02-12T03:05:33.510Z,25.47
2019-02-12T03:08:03.359Z,27.40
2019-02-12T03:10:32.866Z,28.93
2019-02-12T03:13:02.394Z,31.57
2019-02-12T03:15:31.983Z,32.00
2019-02-12T03:18:01.439Z,33.80
2019-02-12T03:20:31.183Z,33.37
2019-02-12T03:23:00.666Z,33.73
2019-02-12T03:25:30.137Z,33.60
2019-02-12T03:27:59.918Z,30.23
2019-02-12T03:30:29.542Z,29.07
2019-02-12T03:32:59.216Z,29.63
2019-02-12T03:35:28.965Z,31.80
2019-02-12T03:37:58.512Z,31.75
2019-02-12T03:40:28.029Z,31.87
2019-02-12T03:42:57.630Z,32.23
2019-02-12T03:45:27.170Z,33.57
2019-02-12T03:47:56.635Z,30.48
2019-02-12T03:50:26.167Z,30.95
2019-02-12T03:52:55.663Z,31.37
2019-02-12T03:55:25.208Z,29.52
2019-02-12T03:57:54.903Z,32.90
2019-02-12T04:00:24.525Z,32.33
2019-02-12T04:03:07.060Z,30.63
2019-02-12T04:05:37.602Z,30.75
2019-02-12T04:08:07.300Z,33.25
2019-02-12T04:10:36.911Z,30.93
2019-02-12T04:13:06.452Z,32.73
2019-02-12T04:15:36.049Z,35.20
2019-02-12T04:18:05.750Z,38.92
2019-02-12T04:20:35.248Z,36.00
2019-02-12T04:23:04.724Z,36.15
2019-02-12T04:25:34.225Z,34.03
2019-02-12T04:28:03.696Z,32.67
2019-02-12T04:30:33.277Z,34.03
2019-02-12T04:33:02.981Z,33.78
2019-02-12T04:35:32.458Z,33.63
2019-02-12T04:38:01.892Z,28.10
2019-02-12T04:40:31.436Z,34.23
2019-02-12T04:43:00.841Z,34.60
2019-02-12T04:45:30.276Z,32.63
2019-02-12T04:47:59.803Z,33.30
2019-02-12T04:50:29.325Z,35.73
2019-02-12T04:52:58.787Z,37.03
2019-02-12T04:55:28.507Z,34.78
2019-02-12T04:57:57.925Z,31.68
2019-02-12T05:00:27.526Z,34.10
2019-02-12T05:02:57.255Z,35.28
2019-02-12T05:05:26.741Z,35.48
2019-02-12T05:07:56.259Z,38.42
2019-02-12T05:10:26.967Z,41.37
2019-02-12T05:12:56.596Z,42.00
2019-02-12T05:15:26.225Z,37.33
2019-02-12T05:17:56.117Z,40.33
2019-02-12T05:20:25.631Z,40.90
2019-02-12T05:22:55.143Z,42.60
2019-02-12T05:25:24.686Z,36.20
2019-02-12T05:27:54.187Z,36.00
2019-02-12T05:30:23.633Z,45.13
2019-02-12T05:32:53.255Z,43.35
2019-02-12T05:35:22.813Z,39.67
2019-02-12T05:37:52.332Z,41.90
2019-02-12T05:40:21.898Z,39.35
2019-02-12T05:42:51.433Z,34.30
2019-02-12T05:45:20.906Z,32.45
2019-02-12T05:47:50.604Z,32.28
2019-02-12T05:50:20.207Z,33.78
2019-02-12T05:52:54.233Z,34.60
2019-02-12T05:55:20.858Z,35.88
2019-02-12T05:57:50.342Z,37.48
2019-02-12T06:00:21.462Z,36.42
2019-02-12T06:02:51.235Z,34.10
2019-02-12T06:05:30.103Z,35.52
2019-02-12T06:07:59.543Z,37.23
2019-02-12T06:10:29.069Z,35.83
2019-02-12T06:12:58.468Z,34.00
2019-02-12T06:15:28.021Z,33.55
2019-02-12T06:17:57.507Z,36.50
2019-02-12T06:20:26.950Z,37.90
2019-02-12T06:23:03.487Z,33.55
2019-02-12T06:25:27.614Z,36.20
2019-02-12T06:27:57.060Z,34.33
2019-02-12T06:30:26.563Z,35.58
2019-02-12T06:32:56.061Z,37.05
2019-02-12T06:35:25.639Z,36.17
2019-02-12T06:37:55.351Z,36.17
2019-02-12T06:40:24.831Z,34.23
2019-02-12T06:42:54.365Z,33.53
2019-02-12T06:45:23.958Z,34.92
2019-02-12T06:47:53.513Z,33.98
2019-02-12T06:50:23.020Z,34.80
2019-02-12T06:52:52.627Z,35.20
2019-02-12T06:55:22.127Z,33.78
2019-02-12T06:57:51.633Z,35.48
2019-02-12T07:00:21.119Z,35.70
2019-02-12T07:03:14.083Z,37.67
2019-02-12T07:05:50.390Z,35.00
2019-02-12T07:08:51.153Z,38.35
2019-02-12T07:11:51.839Z,40.00
2019-02-12T07:14:38.615Z,40.50
2019-02-12T07:17:44.143Z,43.02
2019-02-12T07:21:07.306Z,46.18
2019-02-12T07:24:08.230Z,46.73
2019-02-12T07:27:04.704Z,49.05
2019-02-12T07:30:10.408Z,54.40
2019-02-12T07:32:51.443Z,56.60
2019-02-12T07:36:00.873Z,53.30
2019-02-12T07:38:59.595Z,55.83
2019-02-12T07:41:43.234Z,55.35
2019-02-12T07:44:47.233Z,58.33
2019-02-12T07:47:48.689Z,60.15
2019-02-12T07:51:05.133Z,56.55
2019-02-12T07:53:50.502Z,58.40
2019-02-12T07:56:51.597Z,54.67
2019-02-12T07:59:50.492Z,56.75
2019-02-12T08:02:52.506Z,53.00
2019-02-12T08:06:00.326Z,52.95
2019-02-12T08:09:13.805Z,49.30
2019-02-12T08:12:13.720Z,46.88
2019-02-12T08:14:51.512Z,46.05
2019-02-12T08:17:58.141Z,44.45
2019-02-12T08:21:20.500Z,46.55
2019-02-12T08:24:22.361Z,48.00
2019-02-12T08:27:15.129Z,44.98
2019-02-12T08:30:23.010Z,48.00
2019-02-12T08:33:07.332Z,44.48
2019-02-12T08:36:10.006Z,44.03
2019-02-12T08:39:30.225Z,42.95
2019-02-12T08:42:56.178Z,41.80
2019-02-12T08:46:04.142Z,40.05
2019-02-12T08:49:26.978Z,36.73
2019-02-12T08:52:29.201Z,33.98
2019-02-12T08:55:39.469Z,33.45
2019-02-12T08:59:02.240Z,34.45
2019-02-12T09:02:10.776Z,32.65
2019-02-12T09:04:57.042Z,32.98
2019-02-12T09:07:44.172Z,34.10
2019-02-12T09:10:52.274Z,32.23
2019-02-12T09:14:08.154Z,35.60
2019-02-12T09:17:13.275Z,32.73
2019-02-12T09:20:22.537Z,29.20
2019-02-12T09:23:27.779Z,29.05
2019-02-12T09:26:41.743Z,26.35
2019-02-12T09:29:42.748Z,26.37
2019-02-12T09:33:08.666Z,27.00
2019-02-12T09:35:57.538Z,24.57
2019-02-12T09:39:13.149Z,24.65
2019-02-12T09:42:18.348Z,23.18
2019-02-12T09:45:25.078Z,22.25
2019-02-12T09:48:31.017Z,23.67
2019-02-12T09:51:41.822Z,21.42
2019-02-12T09:55:04.516Z,21.75
2019-02-12T09:58:10.627Z,22.32
2019-02-12T10:01:10.194Z,19.15
2019-02-12T10:04:24.115Z,19.80
2019-02-12T10:07:21.345Z,18.27
2019-02-12T10:10:24.303Z,19.70
2019-02-12T10:13:32.328Z,22.22
2019-02-12T10:16:25.631Z,21.52
2019-02-12T10:19:27.355Z,18.60
2019-02-12T10:22:46.665Z,19.57
2019-02-12T10:25:43.758Z,19.30
2019-02-12T10:28:50.179Z,20.20
2019-02-12T10:31:30.268Z,20.82
2019-02-12T10:33:59.968Z,20.80
2019-02-12T10:36:29.538Z,19.65
2019-02-12T10:38:59.187Z,19.98
2019-02-12T10:41:28.743Z,20.88
2019-02-12T10:43:58.171Z,19.20
2019-02-12T10:46:27.661Z,21.30
2019-02-12T10:48:57.368Z,18.60
2019-02-12T10:51:27.003Z,19.82
2019-02-12T10:53:56.504Z,18.02
2019-02-12T10:56:26.114Z,16.27
2019-02-12T10:58:55.724Z,19.45
2019-02-12T11:01:25.245Z,13.93
2019-02-12T11:03:54.774Z,16.00
2019-02-12T11:06:24.229Z,16.57
2019-02-12T11:08:53.780Z,14.50
2019-02-12T11:11:23.398Z,13.45
2019-02-12T11:13:52.929Z,15.88
2019-02-12T11:16:22.394Z,14.75
2019-02-12T11:18:52.038Z,13.28
2019-02-12T11:21:21.553Z,12.60
2019-02-12T11:23:51.047Z,12.80
2019-02-12T11:26:20.652Z,15.60
2019-02-12T11:28:50.123Z,13.75
2019-02-12T11:31:19.579Z,13.00
2019-02-12T11:33:49.171Z,12.43
2019-02-12T11:36:18.765Z,13.60
2019-02-12T11:38:48.244Z,13.25
2019-02-12T11:41:17.885Z,15.48
2019-02-12T11:43:47.355Z,13.55
2019-02-12T11:46:16.822Z,14.28
2019-02-12T11:48:46.362Z,13.58
2019-02-12T11:51:15.832Z,13.22
2019-02-12T11:53:45.293Z,14.75
2019-02-12T11:56:15.016Z,11.83
2019-02-12T11:58:44.476Z,12.13
2019-02-12T12:01:18.648Z,11.45
2019-02-12T12:03:48.143Z,11.78
2019-02-12T12:06:17.648Z,11.20
2019-02-12T12:08:47.099Z,11.57
2019-02-12T12:11:16.569Z,11.38
2019-02-12T12:13:46.054Z,11.05
2019-02-12T12:16:15.594Z,12.70
2019-02-12T12:18:45.339Z,11.65
2019-02-12T12:21:14.757Z,11.70
2019-02-12T12:23:44.222Z,10.35
2019-02-12T12:26:13.787Z,10.68
2019-02-12T12:28:43.448Z,13.25
2019-02-12T12:31:12.946Z,12.50
2019-02-12T12:33:42.725Z,13.48
2019-02-12T12:36:12.202Z,12.37
2019-02-12T12:38:41.688Z,12.75
2019-02-12T12:41:11.249Z,11.73
2019-02-12T12:43:40.729Z,12.05
2019-02-12T12:46:10.167Z,13.10
2019-02-12T12:48:40.087Z,12.82
2019-02-12T12:51:09.844Z,14.90
2019-02-12T12:53:39.335Z,13.50
2019-02-12T12:56:08.772Z,13.38
2019-02-12T12:58:38.234Z,13.32
2019-02-12T13:01:07.798Z,11.35
2019-02-12T13:03:37.282Z,12.45
2019-02-12T13:06:06.803Z,13.98
2019-02-12T13:08:36.257Z,11.50
2019-02-12T13:11:05.906Z,10.40
2019-02-12T13:13:35.413Z,10.55
2019-02-12T13:16:04.904Z,10.80
2019-02-12T13:18:34.438Z,11.28
2019-02-12T13:21:04.066Z,12.43
2019-02-12T13:23:33.573Z,10.18
2019-02-12T13:26:03.253Z,9.88
2019-02-12T13:28:32.721Z,9.93
2019-02-12T13:31:02.303Z,10.60
2019-02-12T13:33:31.860Z,10.40
2019-02-12T13:36:01.332Z,7.45
2019-02-12T13:38:30.990Z,9.78
2019-02-12T13:41:00.667Z,9.38
2019-02-12T13:43:30.147Z,7.75
2019-02-12T13:45:59.774Z,6.28
2019-02-12T13:48:29.493Z,4.35
2019-02-12T13:50:59.092Z,5.78
2019-02-12T13:53:28.645Z,5.10
2019-02-12T13:55:58.318Z,9.10
2019-02-12T13:58:27.900Z,5.12
2019-02-12T14:00:57.403Z,3.70
2019-02-12T14:03:26.899Z,3.77
2019-02-12T14:05:56.282Z,5.15
2019-02-12T14:08:25.765Z,4.30
2019-02-12T14:10:55.515Z,4.72
2019-02-12T14:13:25.028Z,4.72
2019-02-12T14:15:54.526Z,4.17
2019-02-12T14:18:24.174Z,4.70
2019-02-12T14:20:53.913Z,4.83
2019-02-12T14:23:23.459Z,5.42
2019-02-12T14:25:53.072Z,5.65
2019-02-12T14:28:22.549Z,6.42
2019-02-12T14:30:52.069Z,5.47
2019-02-12T14:33:21.600Z,5.40
2019-02-12T14:35:51.117Z,5.55
2019-02-12T14:38:20.579Z,6.60
2019-02-12T14:40:50.205Z,5.22
2019-02-12T14:43:19.682Z,5.00
2019-02-12T14:45:49.107Z,5.75
2019-02-12T14:48:18.741Z,4.08
2019-02-12T14:50:48.361Z,5.17
2019-02-12T14:53:17.934Z,5.15
2019-02-12T14:55:47.707Z,5.42
2019-02-12T14:58:17.231Z,5.12
2019-02-12T15:00:46.781Z,10.25
2019-02-12T15:03:16.308Z,7.25
2019-02-12T15:05:45.773Z,6.70
2019-02-12T15:08:15.282Z,6.33
2019-02-12T15:10:44.775Z,6.22
2019-02-12T15:13:14.242Z,7.12
2019-02-12T15:15:43.730Z,7.55
2019-02-12T15:18:13.242Z,7.35
2019-02-12T15:20:42.731Z,6.22
2019-02-12T15:23:12.374Z,6.33
2019-02-12T15:25:42.262Z,5.75
2019-02-12T15:28:11.825Z,5.37
2019-02-12T15:30:41.480Z,6.95
2019-02-12T15:33:11.167Z,6.83
2019-02-12T15:35:40.697Z,6.00
2019-02-12T15:38:10.210Z,6.08
2019-02-12T15:40:39.770Z,7.00
2019-02-12T15:43:09.317Z,6.75
2019-02-12T15:45:38.815Z,7.25
2019-02-12T15:48:08.489Z,7.15
2019-02-12T15:50:38.101Z,6.03
2019-02-12T15:53:07.595Z,5.97
2019-02-12T15:55:42.237Z,5.10
2019-02-12T15:58:08.615Z,4.95
2019-02-12T16:00:39.573Z,5.83
2019-02-12T16:03:11.021Z,5.50
2019-02-12T16:05:40.671Z,5.12
2019-02-12T16:08:10.240Z,4.78
2019-02-12T16:10:41.830Z,5.75
2019-02-12T16:13:11.546Z,5.47
2019-02-12T16:15:43.547Z,5.22
2019-02-12T16:18:13.041Z,5.53
2019-02-12T16:20:42.509Z,6.67
2019-02-12T16:23:12.832Z,6.30
2019-02-12T16:25:42.491Z,5.35
2019-02-12T16:28:12.032Z,5.33
2019-02-12T16:30:41.541Z,6.30
2019-02-12T16:33:11.020Z,6.00
2019-02-12T16:35:40.560Z,6.28
2019-02-12T16:38:10.091Z,5.85
2019-02-12T16:40:40.052Z,7.28
2019-02-12T16:43:09.574Z,7.35
2019-02-12T16:45:43.778Z,6.60
2019-02-12T16:48:13.268Z,5.90
2019-02-12T16:50:42.832Z,5.97
2019-02-12T16:53:12.562Z,5.53
2019-02-12T16:55:42.035Z,6.17
2019-02-12T16:58:11.582Z,5.83
2019-02-12T17:00:41.127Z,6.87
2019-02-12T17:03:10.885Z,6.60
2019-02-12T17:05:40.312Z,7.40
2019-02-12T17:08:10.056Z,7.30
2019-02-12T17:10:39.489Z,5.87
2019-02-12T17:13:08.932Z,7.00
2019-02-12T17:15:38.508Z,4.95
2019-02-12T17:18:07.975Z,7.00
2019-02-12T17:20:37.583Z,6.67
2019-02-12T17:23:07.319Z,6.20
2019-02-12T17:25:38.186Z,6.30
2019-02-12T17:28:08.261Z,6.37
2019-02-12T17:30:38.972Z,6.28
2019-02-12T17:33:08.575Z,7.50
2019-02-12T17:35:38.178Z,6.97
2019-02-12T17:38:07.826Z,7.40
2019-02-12T17:40:37.351Z,6.47
2019-02-12T17:43:06.834Z,6.65
2019-02-12T17:45:36.575Z,7.97
2019-02-12T17:48:06.049Z,8.30
2019-02-12T17:50:35.572Z,8.53
2019-02-12T17:53:05.177Z,9.58
2019-02-12T17:55:34.686Z,9.63
2019-02-12T17:58:04.192Z,10.78
2019-02-12T18:00:37.209Z,18.17
2019-02-12T18:03:06.737Z,10.85
2019-02-12T18:05:36.191Z,9.23
2019-02-12T18:08:05.703Z,10.95
2019-02-12T18:10:35.201Z,8.70
2019-02-12T18:13:07.737Z,24.55
2019-02-12T18:15:37.242Z,10.28
2019-02-12T18:18:09.714Z,9.23
2019-02-12T18:20:39.305Z,8.68
2019-02-12T18:23:08.965Z,9.40
2019-02-12T18:25:38.458Z,7.62
2019-02-12T18:28:07.948Z,8.10
2019-02-12T18:30:37.551Z,9.48
2019-02-12T18:33:07.296Z,8.65
2019-02-12T18:35:36.755Z,9.80
2019-02-12T18:38:06.230Z,8.83
2019-02-12T18:40:37.381Z,9.63
2019-02-12T18:43:06.870Z,10.08
2019-02-12T18:45:36.438Z,10.45
2019-02-12T18:48:06.390Z,12.33
2019-02-12T18:50:35.991Z,12.58
2019-02-12T18:53:05.873Z,12.40
2019-02-12T18:55:35.340Z,12.15
2019-02-12T18:58:04.820Z,14.45
2019-02-12T19:00:34.540Z,13.32
2019-02-12T19:03:04.195Z,13.28
2019-02-12T19:05:33.931Z,14.30
2019-02-12T19:08:03.444Z,14.45
2019-02-12T19:10:33.005Z,13.75
2019-02-12T19:13:02.467Z,14.55
2019-02-12T19:15:32.051Z,15.63
2019-02-12T19:18:10.174Z,16.12
2019-02-12T19:20:39.910Z,15.55
2019-02-12T19:23:09.390Z,15.15
2019-02-12T19:25:38.853Z,15.55
2019-02-12T19:28:08.546Z,14.98
2019-02-12T19:30:37.988Z,15.40
2019-02-12T19:33:07.400Z,13.25
2019-02-12T19:35:37.490Z,15.58
2019-02-12T19:38:06.962Z,15.05
2019-02-12T19:40:36.391Z,14.13
2019-02-12T19:43:06.081Z,14.10
2019-02-12T19:45:35.506Z,13.80
2019-02-12T19:48:04.965Z,14.45
2019-02-12T19:50:34.606Z,13.13
2019-02-12T19:53:04.104Z,13.70
2019-02-12T19:55:33.602Z,13.68
2019-02-12T19:58:03.274Z,12.90
2019-02-12T20:00:32.713Z,11.53
2019-02-12T20:03:02.176Z,12.35
2019-02-12T20:05:31.772Z,11.68
2019-02-12T20:08:01.226Z,13.93
2019-02-12T20:10:30.733Z,12.78
2019-02-12T20:13:00.384Z,12.78
2019-02-12T20:15:29.873Z,13.13
2019-02-12T20:17:59.389Z,12.25
2019-02-12T20:20:28.890Z,11.78
2019-02-12T20:22:58.378Z,12.55
2019-02-12T20:25:27.867Z,11.40
2019-02-12T20:27:57.424Z,11.35
2019-02-12T20:30:26.879Z,12.90
2019-02-12T20:32:56.451Z,11.12
2019-02-12T20:35:26.128Z,11.63
2019-02-12T20:37:55.647Z,11.70
2019-02-12T20:40:25.263Z,12.03
2019-02-12T20:42:54.919Z,11.15
2019-02-12T20:45:24.376Z,10.15
2019-02-12T20:47:53.822Z,11.80
2019-02-12T20:50:23.360Z,11.65
2019-02-12T20:52:52.884Z,12.07
2019-02-12T20:55:22.412Z,12.00
2019-02-12T20:57:51.898Z,11.65
2019-02-12T21:00:21.555Z,12.75
2019-02-12T21:02:51.047Z,11.15
2019-02-12T21:05:20.584Z,12.78
2019-02-12T21:07:50.026Z,12.65
2019-02-12T21:10:19.701Z,12.95
2019-02-12T21:12:49.340Z,13.22
2019-02-12T21:15:19.946Z,13.18
2019-02-12T21:17:49.293Z,15.63
2019-02-12T21:20:18.871Z,14.53
2019-02-12T21:22:48.371Z,16.45
2019-02-12T21:25:17.924Z,15.00
2019-02-12T21:27:47.527Z,17.80
2019-02-12T21:30:18.924Z,16.48
2019-02-12T21:32:48.422Z,16.80
2019-02-12T21:35:17.903Z,15.93
2019-02-12T21:37:47.373Z,15.90
2019-02-12T21:40:18.911Z,16.85
2019-02-12T21:42:49.256Z,17.07
2019-02-12T21:45:18.681Z,15.18
2019-02-12T21:47:48.139Z,16.65
2019-02-12T21:50:17.645Z,16.48
2019-02-12T21:52:47.174Z,17.60
2019-02-12T21:55:16.790Z,16.30
2019-02-12T21:57:46.394Z,16.80
2019-02-12T22:00:16.501Z,17.37
2019-02-12T22:03:00.215Z,19.82
2019-02-12T22:05:29.801Z,18.80
2019-02-12T22:07:59.333Z,19.02
2019-02-12T22:10:29.026Z,19.65
2019-02-12T22:12:58.485Z,19.57
2019-02-12T22:15:27.976Z,19.75
2019-02-12T22:17:57.478Z,22.32
2019-02-12T22:20:26.889Z,22.05
2019-02-12T22:22:56.379Z,22.52
2019-02-12T22:25:25.869Z,20.90
2019-02-12T22:27:55.365Z,22.42
2019-02-12T22:30:24.837Z,23.38
2019-02-12T22:32:54.436Z,23.20
2019-02-12T22:35:23.838Z,24.40
2019-02-12T22:37:54.025Z,24.80
2019-02-12T22:40:23.490Z,23.40
2019-02-12T22:42:52.965Z,25.17
2019-02-12T22:45:22.414Z,24.80
2019-02-12T22:47:52.107Z,24.25
2019-02-12T22:50:21.538Z,24.10
2019-02-12T22:52:51.193Z,24.32
2019-02-12T22:55:20.812Z,24.45
2019-02-12T22:57:50.272Z,25.17
2019-02-12T23:00:34.280Z,24.35
2019-02-12T23:03:03.652Z,23.80
2019-02-12T23:05:33.126Z,23.00
2019-02-12T23:08:02.644Z,24.05
2019-02-12T23:10:31.976Z,24.40
2019-02-12T23:13:01.422Z,23.75
2019-02-12T23:15:31.035Z,23.98
2019-02-12T23:18:00.514Z,24.67
2019-02-12T23:20:29.898Z,25.43
2019-02-12T23:22:59.472Z,24.57
2019-02-12T23:25:28.992Z,25.55
2019-02-12T23:27:58.405Z,22.05
2019-02-12T23:30:28.037Z,24.35
2019-02-12T23:32:57.529Z,23.77
2019-02-12T23:35:27.018Z,23.87
2019-02-12T23:37:56.490Z,25.60
2019-02-12T23:40:25.993Z,24.55
2019-02-12T23:42:55.472Z,23.67
2019-02-12T23:45:24.950Z,22.82
2019-02-12T23:47:54.597Z,24.70
2019-02-12T23:50:24.031Z,23.67
2019-02-12T23:52:53.494Z,23.27
2019-02-12T23:55:23.085Z,22.70
2019-02-12T23:57:52.489Z,24.75
